sensor_id;sensor_type;location;lat;lon;timestamp;pressure;altitude;pressure_sealevel;temperature;humidity
8061;BME280;4073;42.626;25.386;2023-05-07T00:00:21;97461.66;;;14.49;100.00
8061;BME280;4073;42.626;25.386;2023-05-07T00:02:46;97467.47;;;14.38;100.00
8061;BME280;4073;42.626;25.386;2023-05-07T00:05:12;97461.75;;;14.16;100.00
8061;BME280;4073;42.626;25.386;2023-05-07T00:07:37;97461.59;;;13.84;100.00
8061;BME280;4073;42.626;25.386;2023-05-07T00:10:04;97447.44;;;13.50;100.00
8061;BME280;4073;42.626;25.386;2023-05-07T00:12:31;97462.25;;;13.47;100.00
8061;BME280;4073;42.626;25.386;2023-05-07T00:14:59;97467.13;;;13.40;100.00
8061;BME280;4073;42.626;25.386;2023-05-07T00:17:24;97466.72;;;13.23;100.00
8061;BME280;4073;42.626;25.386;2023-05-07T00:19:49;97471.91;;;13.15;100.00
8061;BME280;4073;42.626;25.386;2023-05-07T00:22:15;97473.63;;;13.00;100.00
8061;BME280;4073;42.626;25.386;2023-05-07T00:24:40;97460.50;;;12.89;100.00
8061;BME280;4073;42.626;25.386;2023-05-07T00:27:06;97461.66;;;12.83;100.00
8061;BME280;4073;42.626;25.386;2023-05-07T00:29:31;97474.25;;;12.82;100.00
8061;BME280;4073;42.626;25.386;2023-05-07T00:31:56;97434.72;;;12.54;100.00
8061;BME280;4073;42.626;25.386;2023-05-07T00:34:22;97467.38;;;12.66;100.00
8061;BME280;4073;42.626;25.386;2023-05-07T00:36:48;97468.78;;;12.59;100.00
8061;BME280;4073;42.626;25.386;2023-05-07T00:39:13;97468.00;;;12.48;100.00
8061;BME280;4073;42.626;25.386;2023-05-07T00:41:39;97465.28;;;12.53;100.00
8061;BME280;4073;42.626;25.386;2023-05-07T00:44:04;97459.94;;;12.53;100.00
8061;BME280;4073;42.626;25.386;2023-05-07T00:46:30;97461.56;;;12.54;100.00
8061;BME280;4073;42.626;25.386;2023-05-07T00:48:56;97465.50;;;12.62;100.00
8061;BME280;4073;42.626;25.386;2023-05-07T00:51:24;97467.66;;;12.65;100.00
8061;BME280;4073;42.626;25.386;2023-05-07T00:53:57;97437.97;;;12.46;100.00
8061;BME280;4073;42.626;25.386;2023-05-07T00:56:23;97463.09;;;12.65;100.00
8061;BME280;4073;42.626;25.386;2023-05-07T00:58:49;97469.00;;;12.67;100.00
8061;BME280;4073;42.626;25.386;2023-05-07T01:01:14;97463.09;;;12.65;100.00
8061;BME280;4073;42.626;25.386;2023-05-07T01:03:42;97472.47;;;12.68;100.00
8061;BME280;4073;42.626;25.386;2023-05-07T01:06:08;97473.28;;;12.68;100.00
8061;BME280;4073;42.626;25.386;2023-05-07T01:08:38;97465.72;;;12.70;100.00
8061;BME280;4073;42.626;25.386;2023-05-07T01:11:06;97467.91;;;12.68;100.00
8061;BME280;4073;42.626;25.386;2023-05-07T01:13:32;97433.47;;;12.42;100.00
8061;BME280;4073;42.626;25.386;2023-05-07T01:15:58;97462.88;;;12.57;100.00
8061;BME280;4073;42.626;25.386;2023-05-07T01:18:24;97447.44;;;12.39;100.00
8061;BME280;4073;42.626;25.386;2023-05-07T01:20:51;97455.97;;;12.41;100.00
8061;BME280;4073;42.626;25.386;2023-05-07T01:23:18;97447.19;;;12.30;100.00
8061;BME280;4073;42.626;25.386;2023-05-07T01:25:43;97453.06;;;12.37;100.00
8061;BME280;4073;42.626;25.386;2023-05-07T01:28:08;97427.16;;;12.13;100.00
8061;BME280;4073;42.626;25.386;2023-05-07T01:30:35;97455.25;;;12.30;100.00
8061;BME280;4073;42.626;25.386;2023-05-07T01:33:06;97456.06;;;12.21;100.00
8061;BME280;4073;42.626;25.386;2023-05-07T01:35:40;97461.47;;;12.11;100.00
8061;BME280;4073;42.626;25.386;2023-05-07T01:38:06;97435.09;;;11.69;100.00
8061;BME280;4073;42.626;25.386;2023-05-07T01:40:33;97466.13;;;11.75;100.00
8061;BME280;4073;42.626;25.386;2023-05-07T01:42:59;97437.53;;;11.41;100.00
8061;BME280;4073;42.626;25.386;2023-05-07T01:45:25;97466.44;;;11.49;100.00
8061;BME280;4073;42.626;25.386;2023-05-07T01:47:51;97461.88;;;11.44;100.00
8061;BME280;4073;42.626;25.386;2023-05-07T01:50:19;97433.78;;;11.22;100.00
8061;BME280;4073;42.626;25.386;2023-05-07T01:52:44;97459.75;;;11.46;100.00
8061;BME280;4073;42.626;25.386;2023-05-07T01:55:10;97425.50;;;11.33;100.00
8061;BME280;4073;42.626;25.386;2023-05-07T01:57:36;97446.34;;;11.56;100.00
8061;BME280;4073;42.626;25.386;2023-05-07T02:00:01;97450.09;;;11.55;100.00
8061;BME280;4073;42.626;25.386;2023-05-07T02:02:31;97446.34;;;11.51;100.00
8061;BME280;4073;42.626;25.386;2023-05-07T02:04:56;97440.72;;;11.43;100.00
8061;BME280;4073;42.626;25.386;2023-05-07T02:07:22;97436.19;;;11.33;100.00
8061;BME280;4073;42.626;25.386;2023-05-07T02:09:47;97413.22;;;11.12;100.00
8061;BME280;4073;42.626;25.386;2023-05-07T02:12:13;97437.81;;;11.29;100.00
8061;BME280;4073;42.626;25.386;2023-05-07T02:14:38;97437.53;;;11.26;100.00
8061;BME280;4073;42.626;25.386;2023-05-07T02:17:04;97435.66;;;11.26;100.00
8061;BME280;4073;42.626;25.386;2023-05-07T02:19:29;97432.19;;;11.31;100.00
8061;BME280;4073;42.626;25.386;2023-05-07T02:21:55;97439.94;;;11.42;100.00
8061;BME280;4073;42.626;25.386;2023-05-07T02:24:20;97428.97;;;11.44;100.00
8061;BME280;4073;42.626;25.386;2023-05-07T02:26:46;97431.34;;;11.50;100.00
8061;BME280;4073;42.626;25.386;2023-05-07T02:29:11;97405.13;;;11.37;100.00
8061;BME280;4073;42.626;25.386;2023-05-07T02:31:37;97397.66;;;11.39;100.00
8061;BME280;4073;42.626;25.386;2023-05-07T02:34:02;97427.34;;;11.58;100.00
8061;BME280;4073;42.626;25.386;2023-05-07T02:36:29;97430.28;;;11.56;100.00
8061;BME280;4073;42.626;25.386;2023-05-07T02:38:54;97427.88;;;11.65;100.00
8061;BME280;4073;42.626;25.386;2023-05-07T02:41:20;97398.41;;;11.50;100.00
8061;BME280;4073;42.626;25.386;2023-05-07T02:43:46;97405.38;;;11.61;100.00
8061;BME280;4073;42.626;25.386;2023-05-07T02:46:11;97378.91;;;11.39;100.00
8061;BME280;4073;42.626;25.386;2023-05-07T02:48:37;97416.63;;;11.53;100.00
8061;BME280;4073;42.626;25.386;2023-05-07T02:51:03;97419.31;;;11.43;100.00
8061;BME280;4073;42.626;25.386;2023-05-07T02:53:28;97413.16;;;11.47;100.00
8061;BME280;4073;42.626;25.386;2023-05-07T02:55:59;97413.69;;;11.44;100.00
8061;BME280;4073;42.626;25.386;2023-05-07T02:58:25;97417.16;;;11.40;100.00
8061;BME280;4073;42.626;25.386;2023-05-07T03:00:50;97412.63;;;11.40;100.00
8061;BME280;4073;42.626;25.386;2023-05-07T03:03:16;97418.78;;;11.41;100.00
8061;BME280;4073;42.626;25.386;2023-05-07T03:05:42;97421.44;;;11.46;100.00
8061;BME280;4073;42.626;25.386;2023-05-07T03:08:08;97388.03;;;11.28;100.00
8061;BME280;4073;42.626;25.386;2023-05-07T03:10:34;97393.41;;;11.28;100.00
8061;BME280;4073;42.626;25.386;2023-05-07T03:13:01;97411.81;;;11.40;100.00
8061;BME280;4073;42.626;25.386;2023-05-07T03:15:26;97407.81;;;11.37;100.00
8061;BME280;4073;42.626;25.386;2023-05-07T03:17:52;97396.59;;;11.25;100.00
8061;BME280;4073;42.626;25.386;2023-05-07T03:20:17;97417.44;;;11.43;100.00
8061;BME280;4073;42.626;25.386;2023-05-07T03:22:42;97420.91;;;11.49;100.00
8061;BME280;4073;42.626;25.386;2023-05-07T03:25:08;97423.84;;;11.47;100.00
8061;BME280;4073;42.626;25.386;2023-05-07T03:27:34;97427.09;;;11.49;100.00
8061;BME280;4073;42.626;25.386;2023-05-07T03:30:00;97417.16;;;11.50;100.00
8061;BME280;4073;42.626;25.386;2023-05-07T03:32:25;97414.22;;;11.41;100.00
8061;BME280;4073;42.626;25.386;2023-05-07T03:34:51;97424.91;;;11.51;100.00
8061;BME280;4073;42.626;25.386;2023-05-07T03:37:17;97387.22;;;11.33;100.00
8061;BME280;4073;42.626;25.386;2023-05-07T03:39:42;97420.06;;;11.58;100.00
8061;BME280;4073;42.626;25.386;2023-05-07T03:42:07;97418.22;;;11.69;100.00
8061;BME280;4073;42.626;25.386;2023-05-07T03:44:33;97407.25;;;11.55;100.00
8061;BME280;4073;42.626;25.386;2023-05-07T03:46:58;97422.50;;;11.70;100.00
8061;BME280;4073;42.626;25.386;2023-05-07T03:49:24;97419.50;;;11.81;100.00
8061;BME280;4073;42.626;25.386;2023-05-07T03:51:49;97428.88;;;11.89;100.00
8061;BME280;4073;42.626;25.386;2023-05-07T03:54:15;97435.00;;;11.94;100.00
8061;BME280;4073;42.626;25.386;2023-05-07T03:56:40;97422.97;;;11.92;100.00
8061;BME280;4073;42.626;25.386;2023-05-07T03:59:06;97432.84;;;12.06;100.00
8061;BME280;4073;42.626;25.386;2023-05-07T04:01:31;97408.75;;;11.96;100.00
8061;BME280;4073;42.626;25.386;2023-05-07T04:03:56;97435.22;;;12.13;100.00
8061;BME280;4073;42.626;25.386;2023-05-07T04:06:22;97435.22;;;12.13;100.00
8061;BME280;4073;42.626;25.386;2023-05-07T04:08:47;97411.69;;;12.00;100.00
8061;BME280;4073;42.626;25.386;2023-05-07T04:11:13;97427.41;;;12.21;100.00
8061;BME280;4073;42.626;25.386;2023-05-07T04:13:38;97432.22;;;12.24;100.00
8061;BME280;4073;42.626;25.386;2023-05-07T04:16:05;97441.03;;;12.30;100.00
8061;BME280;4073;42.626;25.386;2023-05-07T04:18:30;97436.97;;;12.37;100.00
8061;BME280;4073;42.626;25.386;2023-05-07T04:20:56;97441.75;;;12.45;100.00
8061;BME280;4073;42.626;25.386;2023-05-07T04:23:21;97442.28;;;12.47;100.00
8061;BME280;4073;42.626;25.386;2023-05-07T04:25:47;97423.06;;;12.30;100.00
8061;BME280;4073;42.626;25.386;2023-05-07T04:28:12;97450.84;;;12.49;100.00
8061;BME280;4073;42.626;25.386;2023-05-07T04:30:38;97447.66;;;12.47;100.00
8061;BME280;4073;42.626;25.386;2023-05-07T04:33:04;97450.28;;;12.52;100.00
8061;BME280;4073;42.626;25.386;2023-05-07T04:35:29;97424.41;;;12.33;100.00
8061;BME280;4073;42.626;25.386;2023-05-07T04:37:55;97454.28;;;12.60;100.00
8061;BME280;4073;42.626;25.386;2023-05-07T04:40:20;97432.88;;;12.50;100.00
8061;BME280;4073;42.626;25.386;2023-05-07T04:42:46;97419.16;;;12.56;100.00
8061;BME280;4073;42.626;25.386;2023-05-07T04:45:11;97424.44;;;12.66;100.00
8061;BME280;4073;42.626;25.386;2023-05-07T04:47:38;97453.53;;;12.93;100.00
8061;BME280;4073;42.626;25.386;2023-05-07T04:50:04;97454.56;;;12.97;100.00
8061;BME280;4073;42.626;25.386;2023-05-07T04:52:30;97450.81;;;13.03;100.00
8061;BME280;4073;42.626;25.386;2023-05-07T04:54:56;97458.81;;;13.08;100.00
8061;BME280;4073;42.626;25.386;2023-05-07T04:57:21;97446.69;;;13.11;100.00
8061;BME280;4073;42.626;25.386;2023-05-07T04:59:47;97460.59;;;13.51;100.00
8061;BME280;4073;42.626;25.386;2023-05-07T05:02:12;97453.69;;;13.69;100.00
8061;BME280;4073;42.626;25.386;2023-05-07T05:04:38;97427.63;;;13.69;100.00
8061;BME280;4073;42.626;25.386;2023-05-07T05:07:03;97455.38;;;13.88;100.00
8061;BME280;4073;42.626;25.386;2023-05-07T05:09:29;97456.88;;;13.99;100.00
8061;BME280;4073;42.626;25.386;2023-05-07T05:11:55;97448.81;;;13.99;100.00
8061;BME280;4073;42.626;25.386;2023-05-07T05:14:21;97440.63;;;14.09;100.00
8061;BME280;4073;42.626;25.386;2023-05-07T05:16:46;97437.25;;;14.22;100.00
8061;BME280;4073;42.626;25.386;2023-05-07T05:19:12;97471.53;;;14.54;100.00
8061;BME280;4073;42.626;25.386;2023-05-07T05:21:37;97445.16;;;14.56;100.00
8061;BME280;4073;42.626;25.386;2023-05-07T05:24:03;97466.41;;;14.94;100.00
8061;BME280;4073;42.626;25.386;2023-05-07T05:26:28;97473.31;;;15.19;100.00
8061;BME280;4073;42.626;25.386;2023-05-07T05:28:53;97476.59;;;15.48;100.00
8061;BME280;4073;42.626;25.386;2023-05-07T05:31:19;97480.75;;;15.73;100.00
8061;BME280;4073;42.626;25.386;2023-05-07T05:33:45;97476.91;;;15.92;100.00
8061;BME280;4073;42.626;25.386;2023-05-07T05:36:10;97488.31;;;16.16;100.00
8061;BME280;4073;42.626;25.386;2023-05-07T05:38:37;97462.84;;;16.22;100.00
8061;BME280;4073;42.626;25.386;2023-05-07T05:41:02;97478.53;;;16.61;100.00
8061;BME280;4073;42.626;25.386;2023-05-07T05:43:28;97473.72;;;16.58;100.00
8061;BME280;4073;42.626;25.386;2023-05-07T05:45:55;97498.38;;;16.78;100.00
8061;BME280;4073;42.626;25.386;2023-05-07T05:48:21;97487.56;;;16.78;100.00
8061;BME280;4073;42.626;25.386;2023-05-07T05:50:46;97477.78;;;16.82;100.00
8061;BME280;4073;42.626;25.386;2023-05-07T05:53:12;97471.72;;;16.99;100.00
8061;BME280;4073;42.626;25.386;2023-05-07T05:55:37;97491.13;;;17.36;100.00
8061;BME280;4073;42.626;25.386;2023-05-07T05:58:03;97489.41;;;17.62;100.00
8061;BME280;4073;42.626;25.386;2023-05-07T06:00:29;97490.50;;;17.61;100.00
8061;BME280;4073;42.626;25.386;2023-05-07T06:02:54;97499.28;;;17.67;100.00
8061;BME280;4073;42.626;25.386;2023-05-07T06:05:20;97484.03;;;17.71;100.00
8061;BME280;4073;42.626;25.386;2023-05-07T06:07:45;97485.59;;;17.94;100.00
8061;BME280;4073;42.626;25.386;2023-05-07T06:10:11;97491.63;;;18.22;100.00
8061;BME280;4073;42.626;25.386;2023-05-07T06:12:36;97495.84;;;18.36;100.00
8061;BME280;4073;42.626;25.386;2023-05-07T06:15:02;97491.44;;;18.49;100.00
8061;BME280;4073;42.626;25.386;2023-05-07T06:17:28;97492.88;;;18.55;100.00
8061;BME280;4073;42.626;25.386;2023-05-07T06:19:53;97490.38;;;18.67;100.00
8061;BME280;4073;42.626;25.386;2023-05-07T06:22:19;97495.66;;;18.89;100.00
8061;BME280;4073;42.626;25.386;2023-05-07T06:24:44;97499.81;;;18.86;100.00
8061;BME280;4073;42.626;25.386;2023-05-07T06:27:10;97493.75;;;18.89;100.00
8061;BME280;4073;42.626;25.386;2023-05-07T06:29:36;97463.00;;;18.77;100.00
8061;BME280;4073;42.626;25.386;2023-05-07T06:32:07;97486.44;;;19.07;100.00
8061;BME280;4073;42.626;25.386;2023-05-07T06:34:33;97482.31;;;19.35;100.00
8061;BME280;4073;42.626;25.386;2023-05-07T06:36:59;97497.63;;;19.48;98.78
8061;BME280;4073;42.626;25.386;2023-05-07T06:39:24;97495.19;;;19.80;94.67
8061;BME280;4073;42.626;25.386;2023-05-07T06:41:50;97495.75;;;20.03;92.63
8061;BME280;4073;42.626;25.386;2023-05-07T06:44:15;97492.22;;;20.19;90.43
8061;BME280;4073;42.626;25.386;2023-05-07T06:46:41;97469.34;;;20.29;90.93
8061;BME280;4073;42.626;25.386;2023-05-07T06:49:06;97484.16;;;20.69;89.05
8061;BME280;4073;42.626;25.386;2023-05-07T06:51:32;97497.00;;;20.81;85.97
8061;BME280;4073;42.626;25.386;2023-05-07T06:53:57;97481.63;;;20.64;81.75
8061;BME280;4073;42.626;25.386;2023-05-07T06:56:23;97495.09;;;20.81;75.35
8061;BME280;4073;42.626;25.386;2023-05-07T06:58:48;97488.00;;;20.97;70.54
8061;BME280;4073;42.626;25.386;2023-05-07T07:01:14;97496.09;;;21.06;70.83
8061;BME280;4073;42.626;25.386;2023-05-07T07:03:40;97492.69;;;21.29;62.70
8061;BME280;4073;42.626;25.386;2023-05-07T07:06:05;97489.50;;;21.48;61.00
8061;BME280;4073;42.626;25.386;2023-05-07T07:08:31;97492.50;;;21.75;61.51
8061;BME280;4073;42.626;25.386;2023-05-07T07:10:57;97496.19;;;22.03;57.83
8061;BME280;4073;42.626;25.386;2023-05-07T07:13:23;97488.88;;;21.83;54.13
8061;BME280;4073;42.626;25.386;2023-05-07T07:15:48;97497.00;;;22.04;55.42
8061;BME280;4073;42.626;25.386;2023-05-07T07:18:14;97487.84;;;22.32;51.85
8061;BME280;4073;42.626;25.386;2023-05-07T07:20:39;97483.78;;;22.50;52.77
8061;BME280;4073;42.626;25.386;2023-05-07T07:23:05;97463.00;;;22.34;51.27
8061;BME280;4073;42.626;25.386;2023-05-07T07:25:30;97481.50;;;22.52;50.19
8061;BME280;4073;42.626;25.386;2023-05-07T07:27:56;97492.97;;;22.70;48.75
8061;BME280;4073;42.626;25.386;2023-05-07T07:30:21;97480.63;;;22.60;48.29
8061;BME280;4073;42.626;25.386;2023-05-07T07:32:47;97479.47;;;22.73;47.63
8061;BME280;4073;42.626;25.386;2023-05-07T07:35:12;97485.78;;;23.02;46.33
8061;BME280;4073;42.626;25.386;2023-05-07T07:37:38;97488.38;;;23.10;46.54
8061;BME280;4073;42.626;25.386;2023-05-07T07:40:03;97483.31;;;22.85;44.11
8061;BME280;4073;42.626;25.386;2023-05-07T07:42:29;97501.16;;;22.70;45.40
8061;BME280;4073;42.626;25.386;2023-05-07T07:44:54;97509.63;;;22.44;45.20
8061;BME280;4073;42.626;25.386;2023-05-07T07:47:20;97485.91;;;22.33;44.72
8061;BME280;4073;42.626;25.386;2023-05-07T07:49:45;97506.50;;;22.66;45.17
8061;BME280;4073;42.626;25.386;2023-05-07T07:52:11;97515.69;;;22.86;42.57
8061;BME280;4073;42.626;25.386;2023-05-07T07:54:36;97514.78;;;22.58;42.29
8061;BME280;4073;42.626;25.386;2023-05-07T07:57:02;97485.16;;;22.81;43.66
8061;BME280;4073;42.626;25.386;2023-05-07T07:59:27;97501.69;;;23.12;42.14
8061;BME280;4073;42.626;25.386;2023-05-07T08:01:53;97503.47;;;23.20;41.86
8061;BME280;4073;42.626;25.386;2023-05-07T08:04:21;97505.56;;;22.99;41.38
8061;BME280;4073;42.626;25.386;2023-05-07T08:06:46;97497.25;;;23.19;40.96
8061;BME280;4073;42.626;25.386;2023-05-07T08:09:12;97498.22;;;23.39;40.66
8061;BME280;4073;42.626;25.386;2023-05-07T08:11:38;97500.75;;;23.32;40.20
8061;BME280;4073;42.626;25.386;2023-05-07T08:14:04;97494.81;;;23.42;40.29
8061;BME280;4073;42.626;25.386;2023-05-07T08:16:30;97503.88;;;23.46;39.81
8061;BME280;4073;42.626;25.386;2023-05-07T08:19:02;97489.63;;;23.52;39.97
8061;BME280;4073;42.626;25.386;2023-05-07T08:21:28;97498.09;;;23.35;39.24
8061;BME280;4073;42.626;25.386;2023-05-07T08:23:53;97494.72;;;23.14;39.83
8061;BME280;4073;42.626;25.386;2023-05-07T08:26:19;97498.94;;;23.12;40.27
8061;BME280;4073;42.626;25.386;2023-05-07T08:28:45;97495.13;;;23.01;40.32
8061;BME280;4073;42.626;25.386;2023-05-07T08:31:11;97492.97;;;23.46;39.16
8061;BME280;4073;42.626;25.386;2023-05-07T08:33:36;97501.91;;;23.86;38.24
8061;BME280;4073;42.626;25.386;2023-05-07T08:36:03;97486.81;;;24.04;36.73
8061;BME280;4073;42.626;25.386;2023-05-07T08:38:29;97490.09;;;24.25;36.62
8061;BME280;4073;42.626;25.386;2023-05-07T08:40:55;97493.34;;;24.46;35.43
8061;BME280;4073;42.626;25.386;2023-05-07T08:43:21;97494.66;;;24.36;35.59
8061;BME280;4073;42.626;25.386;2023-05-07T08:45:49;97486.06;;;24.34;34.71
8061;BME280;4073;42.626;25.386;2023-05-07T08:48:16;97484.19;;;24.54;35.67
8061;BME280;4073;42.626;25.386;2023-05-07T08:50:42;97479.44;;;24.66;35.09
8061;BME280;4073;42.626;25.386;2023-05-07T08:53:08;97479.44;;;24.66;35.90
8061;BME280;4073;42.626;25.386;2023-05-07T08:55:33;97477.38;;;25.13;34.53
8061;BME280;4073;42.626;25.386;2023-05-07T08:57:59;97478.69;;;25.20;34.43
8061;BME280;4073;42.626;25.386;2023-05-07T09:00:25;97484.44;;;25.49;32.48
8061;BME280;4073;42.626;25.386;2023-05-07T09:02:51;97482.47;;;25.69;32.04
8061;BME280;4073;42.626;25.386;2023-05-07T09:05:17;97475.66;;;25.59;32.05
8061;BME280;4073;42.626;25.386;2023-05-07T09:07:42;97472.31;;;25.69;31.49
8061;BME280;4073;42.626;25.386;2023-05-07T09:10:08;97479.47;;;25.20;31.83
8061;BME280;4073;42.626;25.386;2023-05-07T09:12:33;97480.91;;;25.49;32.14
8061;BME280;4073;42.626;25.386;2023-05-07T09:15:00;97478.94;;;25.68;31.58
8061;BME280;4073;42.626;25.386;2023-05-07T09:17:26;97478.00;;;25.99;30.82
8061;BME280;4073;42.626;25.386;2023-05-07T09:19:52;97477.41;;;26.31;31.37
8061;BME280;4073;42.626;25.386;2023-05-07T09:22:18;97464.38;;;26.47;30.20
8061;BME280;4073;42.626;25.386;2023-05-07T09:24:51;97465.31;;;26.58;29.99
8061;BME280;4073;42.626;25.386;2023-05-07T09:27:17;97459.53;;;26.63;29.78
8061;BME280;4073;42.626;25.386;2023-05-07T09:29:43;97455.81;;;26.75;30.26
8061;BME280;4073;42.626;25.386;2023-05-07T09:32:10;97464.13;;;26.82;29.84
8061;BME280;4073;42.626;25.386;2023-05-07T09:34:36;97450.13;;;26.87;29.55
8061;BME280;4073;42.626;25.386;2023-05-07T09:37:02;97450.47;;;26.85;29.51
8061;BME280;4073;42.626;25.386;2023-05-07T09:39:42;97445.38;;;26.84;29.75
8061;BME280;4073;42.626;25.386;2023-05-07T09:42:07;97443.72;;;26.79;29.36
8061;BME280;4073;42.626;25.386;2023-05-07T09:44:34;97452.00;;;26.34;30.11
8061;BME280;4073;42.626;25.386;2023-05-07T09:47:00;97443.84;;;26.15;30.07
8061;BME280;4073;42.626;25.386;2023-05-07T09:49:29;97445.72;;;26.34;30.29
8061;BME280;4073;42.626;25.386;2023-05-07T09:51:55;97429.81;;;26.65;29.61
8061;BME280;4073;42.626;25.386;2023-05-07T09:54:22;97441.06;;;26.83;29.65
8061;BME280;4073;42.626;25.386;2023-05-07T09:56:52;97430.75;;;27.02;29.59
8061;BME280;4073;42.626;25.386;2023-05-07T09:59:18;97421.03;;;27.08;29.61
8061;BME280;4073;42.626;25.386;2023-05-07T10:01:45;97419.91;;;27.13;29.38
8061;BME280;4073;42.626;25.386;2023-05-07T10:04:11;97429.34;;;26.86;29.57
8061;BME280;4073;42.626;25.386;2023-05-07T10:06:38;97425.75;;;26.59;29.85
8061;BME280;4073;42.626;25.386;2023-05-07T10:09:04;97420.59;;;26.54;30.20
8061;BME280;4073;42.626;25.386;2023-05-07T10:11:36;97422.00;;;26.45;30.21
8061;BME280;4073;42.626;25.386;2023-05-07T10:14:03;97424.34;;;26.43;30.46
8061;BME280;4073;42.626;25.386;2023-05-07T10:16:32;97428.13;;;26.12;30.41
8061;BME280;4073;42.626;25.386;2023-05-07T10:19:05;97425.84;;;25.95;30.93
8061;BME280;4073;42.626;25.386;2023-05-07T10:21:54;97420.84;;;25.97;31.51
8061;BME280;4073;42.626;25.386;2023-05-07T10:24:36;97405.56;;;26.19;31.41
8061;BME280;4073;42.626;25.386;2023-05-07T10:27:10;97415.59;;;26.11;30.90
8061;BME280;4073;42.626;25.386;2023-05-07T10:30:23;97412.84;;;26.11;30.76
8061;BME280;4073;42.626;25.386;2023-05-07T10:32:55;97405.94;;;26.43;30.92
8061;BME280;4073;42.626;25.386;2023-05-07T10:35:24;97392.72;;;26.49;30.50
8061;BME280;4073;42.626;25.386;2023-05-07T10:37:51;97402.16;;;26.51;30.80
8061;BME280;4073;42.626;25.386;2023-05-07T10:40:17;97389.84;;;26.64;29.24
8061;BME280;4073;42.626;25.386;2023-05-07T10:42:57;97394.16;;;26.95;29.32
8061;BME280;4073;42.626;25.386;2023-05-07T10:45:25;97385.25;;;27.01;29.10
8061;BME280;4073;42.626;25.386;2023-05-07T10:48:12;97393.69;;;27.19;29.14
8061;BME280;4073;42.626;25.386;2023-05-07T10:50:39;97379.50;;;27.10;29.13
8061;BME280;4073;42.626;25.386;2023-05-07T10:53:25;97377.88;;;27.09;29.35
8061;BME280;4073;42.626;25.386;2023-05-07T10:56:27;97382.00;;;27.55;28.17
8061;BME280;4073;42.626;25.386;2023-05-07T10:58:53;97380.00;;;27.89;28.03
8061;BME280;4073;42.626;25.386;2023-05-07T11:01:54;97377.59;;;28.27;27.92
8061;BME280;4073;42.626;25.386;2023-05-07T11:04:20;97379.38;;;28.53;27.02
8061;BME280;4073;42.626;25.386;2023-05-07T11:12:16;97382.13;;;28.06;27.35
8061;BME280;4073;42.626;25.386;2023-05-07T11:17:08;97363.38;;;28.72;26.76
8061;BME280;4073;42.626;25.386;2023-05-07T11:19:54;97367.16;;;29.11;25.86
8061;BME280;4073;42.626;25.386;2023-05-07T11:25:02;97362.09;;;29.24;25.85
8061;BME280;4073;42.626;25.386;2023-05-07T11:27:29;97355.41;;;28.53;26.41
8061;BME280;4073;42.626;25.386;2023-05-07T11:29:55;97353.75;;;28.42;26.95
8061;BME280;4073;42.626;25.386;2023-05-07T11:34:53;97346.75;;;27.61;27.59
8061;BME280;4073;42.626;25.386;2023-05-07T11:37:20;97339.69;;;27.60;28.54
8061;BME280;4073;42.626;25.386;2023-05-07T11:39:45;97350.81;;;27.37;27.63
8061;BME280;4073;42.626;25.386;2023-05-07T11:42:30;97354.03;;;26.83;28.47
8061;BME280;4073;42.626;25.386;2023-05-07T11:44:56;97349.94;;;26.70;28.92
8061;BME280;4073;42.626;25.386;2023-05-07T11:47:22;97349.84;;;26.63;29.21
8061;BME280;4073;42.626;25.386;2023-05-07T11:49:48;97344.38;;;26.63;29.27
8061;BME280;4073;42.626;25.386;2023-05-07T11:52:15;97336.06;;;26.60;28.47
8061;BME280;4073;42.626;25.386;2023-05-07T11:54:41;97337.97;;;26.56;30.18
8061;BME280;4073;42.626;25.386;2023-05-07T11:57:06;97335.66;;;26.58;30.50
8061;BME280;4073;42.626;25.386;2023-05-07T11:59:39;97326.16;;;26.00;31.85
8061;BME280;4073;42.626;25.386;2023-05-07T12:02:10;97326.16;;;26.00;31.47
8061;BME280;4073;42.626;25.386;2023-05-07T12:04:36;97325.97;;;25.89;31.55
8061;BME280;4073;42.626;25.386;2023-05-07T12:07:03;97330.88;;;25.99;31.80
8061;BME280;4073;42.626;25.386;2023-05-07T12:09:28;97327.88;;;26.08;31.19
8061;BME280;4073;42.626;25.386;2023-05-07T12:11:54;97327.00;;;26.04;31.61
8061;BME280;4073;42.626;25.386;2023-05-07T12:14:21;97321.09;;;25.57;30.87
8061;BME280;4073;42.626;25.386;2023-05-07T12:16:46;97319.03;;;25.50;32.54
8061;BME280;4073;42.626;25.386;2023-05-07T12:19:12;97310.28;;;25.64;32.56
8061;BME280;4073;42.626;25.386;2023-05-07T12:21:38;97322.69;;;25.58;32.36
8061;BME280;4073;42.626;25.386;2023-05-07T12:24:05;97312.16;;;25.60;32.08
8061;BME280;4073;42.626;25.386;2023-05-07T12:26:30;97295.69;;;25.56;31.58
8061;BME280;4073;42.626;25.386;2023-05-07T12:28:57;97316.19;;;25.05;32.62
8061;BME280;4073;42.626;25.386;2023-05-07T12:31:23;97317.94;;;24.94;31.94
8061;BME280;4073;42.626;25.386;2023-05-07T12:33:50;97308.38;;;24.65;32.95
8061;BME280;4073;42.626;25.386;2023-05-07T12:36:16;97311.88;;;24.66;33.23
8061;BME280;4073;42.626;25.386;2023-05-07T12:38:41;97308.34;;;24.84;34.01
8061;BME280;4073;42.626;25.386;2023-05-07T12:41:08;97310.38;;;24.87;32.83
8061;BME280;4073;42.626;25.386;2023-05-07T12:43:34;97320.38;;;25.18;33.48
8061;BME280;4073;42.626;25.386;2023-05-07T12:46:03;97313.31;;;25.36;33.88
8061;BME280;4073;42.626;25.386;2023-05-07T12:48:28;97305.06;;;25.55;32.81
8061;BME280;4073;42.626;25.386;2023-05-07T12:50:55;97297.50;;;25.49;33.54
8061;BME280;4073;42.626;25.386;2023-05-07T12:53:22;97301.06;;;25.75;32.36
8061;BME280;4073;42.626;25.386;2023-05-07T12:55:49;97295.41;;;25.87;31.39
8061;BME280;4073;42.626;25.386;2023-05-07T13:00:48;97301.09;;;26.24;31.78
8061;BME280;4073;42.626;25.386;2023-05-07T13:03:30;97294.50;;;26.02;31.66
8061;BME280;4073;42.626;25.386;2023-05-07T13:05:58;97295.13;;;25.70;32.46
8061;BME280;4073;42.626;25.386;2023-05-07T13:08:32;97291.25;;;25.71;32.90
8061;BME280;4073;42.626;25.386;2023-05-07T13:11:01;97290.59;;;25.58;33.45
8061;BME280;4073;42.626;25.386;2023-05-07T13:13:31;97297.44;;;25.68;32.74
8061;BME280;4073;42.626;25.386;2023-05-07T13:15:57;97285.75;;;25.48;33.55
8061;BME280;4073;42.626;25.386;2023-05-07T13:18:24;97270.31;;;25.59;33.77